Fort Fairfield, Maine
Current Conditions -  °F | °C
As of 6:54 PM on Saturday 22 Nov 2014 (Local Time) from KCAR Reporting Station
Overcast Overcast  
Wind Chill: 17°   Ceiling: 5500
Heat Index: 25°   Visibility: 9mi
Dew Point: 19°   Wind: 7mph
Humidity: 78%   Direction: 190°S
Pressure: 29.78"   Gusts: NA
Location:  46.77°N, 67.83°W
Report Text: KCAR 222354Z AUTO 19006KT 9SM FEW032 SCT043 OVC055 M04/M07 A2978 RMK AO2 SNE37 SLP098 P0000 60002 T10391072 11033 21056 58009
Loading
Personal Weather Stations






























Interactive Weather Map New forecast layout! Learn more

10-Day Weather Forecast

Advertisements
Track Severe Weather on mobile